Alva, OK

11:44 AM CST on February 22, 2017 (GMT -0600)
Alva Regional

Weather History for KAVK - June, 2012

Change the Weather History Date:

Tuesday, June 12, 2012

  Actual Average Record
Temperature  
Mean Temperature 72 °F -  
Max Temperature 86 °F 91 °F 105 °F (1953)
Min Temperature 57 °F 64 °F 49 °F (1955)
Cooling Degree Days 6    
Growing Degree Days 22 (Base 50)    
Moisture  
Dew Point 50 °F    
Average Humidity 47    
Maximum Humidity 77    
Minimum Humidity 25    
Precipitation  
Precipitation 0.00 in - - ()
Sea Level Pressure  
Sea Level Pressure 30.11 in    
Wind  
Wind Speed 10 mph (ESE)    
Max Wind Speed 23 mph    
Max Gust Speed 32 mph    
Visibility 10 miles    
Events      
Averages and records for this station are not official NWS values.
T = Trace of Precipitation, MM = Missing Value Source: NWS Daily Summary

Daily Weather History Graph

Daily Weather History Graph

Search for Another Location

Airport or City:

Trip Planner

Search our weather history database for the weather conditions in past years. The results will help you decide how hot, cold, wet, or windy it might be!

Date:

Astronomy

Jun. 12, 2012 Rise Set
Actual Time 6:15 AM CDT 8:54 PM CDT
Civil Twilight 5:44 AM CDT 9:24 PM CDT
Nautical Twilight 5:06 AM CDT 10:03 PM CDT
Astronomical Twilight 4:23 AM CDT 10:45 PM CDT
Moon 1:53 AM CDT (6/12) 2:51 PM CDT (6/12)
Length of Visible Light 15h 40m
Length of Day
14h 39m
Last Quarter, 38% of the Moon is Illuminated
Jun 12
Last Quarter
Jun 19
New
Jun 26
First Quarter
Jul 3
Full
Jul 10
Last Quarter

Hourly Weather History & Observations

Time (CDT) Temp. Dew Point Humidity Pressure Visibility Wind Dir Wind Speed Gust Speed Precip Events Conditions
12:05 AM 68.0 °F 46.4 °F 46% 30.08 in 10.0 mi NE 9.2 mph - N/A   Mostly Cloudy
12:25 AM 68.0 °F 46.4 °F 46% 30.08 in 10.0 mi NE 8.1 mph - N/A   Mostly Cloudy
12:45 AM 66.2 °F 46.4 °F 49% 30.08 in 10.0 mi NE 9.2 mph - N/A   Overcast
1:00 AM 66.2 °F 46.4 °F 49% 30.08 in 10.0 mi NE 9.2 mph - N/A   Scattered Clouds
1:25 AM 66.2 °F 46.4 °F 49% 30.09 in 10.0 mi NNE 9.2 mph - N/A   Mostly Cloudy
1:45 AM 66.2 °F 46.4 °F 49% 30.09 in 10.0 mi ENE 6.9 mph - N/A   Scattered Clouds
2:05 AM 66.2 °F 46.4 °F 49% 30.10 in 10.0 mi ENE 4.6 mph - N/A   Clear
2:25 AM 66.2 °F 46.4 °F 49% 30.10 in 10.0 mi NE 6.9 mph - N/A   Clear
2:45 AM 62.6 °F 48.2 °F 59% 30.11 in 10.0 mi NNE 8.1 mph - N/A   Clear
3:05 AM 64.4 °F 46.4 °F 52% 30.11 in 10.0 mi ENE 4.6 mph - N/A   Partly Cloudy
3:25 AM 59.0 °F 48.2 °F 67% 30.11 in 10.0 mi SE 4.6 mph - N/A   Partly Cloudy
3:45 AM 59.0 °F 48.2 °F 67% 30.11 in 10.0 mi SSE 5.8 mph - N/A   Scattered Clouds
4:05 AM 59.0 °F 48.2 °F 67% 30.11 in 10.0 mi Calm Calm - N/A   Clear
4:25 AM 59.0 °F 48.2 °F 67% 30.11 in 10.0 mi Calm Calm - N/A   Clear
4:45 AM 57.2 °F 50.0 °F 77% 30.11 in 10.0 mi Calm Calm - N/A   Clear
5:05 AM 59.0 °F 48.2 °F 67% 30.12 in 10.0 mi Calm Calm - N/A   Clear
5:25 AM 59.0 °F 48.2 °F 67% 30.12 in 10.0 mi SSE 5.8 mph - N/A   Clear
5:45 AM 59.0 °F 48.2 °F 67% 30.13 in 10.0 mi East 3.5 mph - N/A   Clear
6:05 AM 62.6 °F 48.2 °F 59% 30.13 in 10.0 mi ENE 4.6 mph - N/A   Clear
6:25 AM 59.0 °F 50.0 °F 72% 30.13 in 10.0 mi North 6.9 mph - N/A   Clear
6:45 AM 59.0 °F 51.8 °F 77% 30.15 in 10.0 mi NNE 5.8 mph - N/A   Clear
7:05 AM 62.6 °F 53.6 °F 72% 30.14 in 10.0 mi NNE 4.6 mph - N/A   Clear
7:25 AM 66.2 °F 51.8 °F 60% 30.16 in 10.0 mi ENE 3.5 mph - N/A   Clear
7:45 AM 66.2 °F 51.8 °F 60% 30.17 in 10.0 mi NE 5.8 mph - N/A   Clear
8:05 AM 66.2 °F 51.8 °F 60% 30.16 in 10.0 mi ENE 5.8 mph - N/A   Clear
8:25 AM 66.2 °F 53.6 °F 64% 30.17 in 10.0 mi ENE 3.5 mph - N/A   Clear
8:45 AM 68.0 °F 53.6 °F 60% 30.17 in 10.0 mi East 8.1 mph - N/A   Clear
9:05 AM 71.6 °F 53.6 °F 53% 30.17 in 10.0 mi SE 9.2 mph - N/A   Clear
9:25 AM 73.4 °F 53.6 °F 50% 30.16 in 10.0 mi ESE 13.8 mph - N/A   Clear
9:45 AM 73.4 °F 53.6 °F 50% 30.18 in 10.0 mi ESE 13.8 mph - N/A   Clear
10:05 AM 75.2 °F 53.6 °F 47% 30.18 in 10.0 mi East 12.7 mph - N/A   Clear
10:25 AM 75.2 °F 53.6 °F 47% 30.18 in 10.0 mi East 13.8 mph - N/A   Clear
10:45 AM 75.2 °F 53.6 °F 47% 30.19 in 10.0 mi East 13.8 mph - N/A   Clear
11:05 AM 75.2 °F 53.6 °F 47% 30.20 in 10.0 mi SE 11.5 mph - N/A   Clear
11:25 AM 77.0 °F 53.6 °F 44% 30.20 in 10.0 mi SE 15.0 mph 18.4 mph N/A   Clear
11:45 AM 78.8 °F 51.8 °F 39% 30.21 in 10.0 mi SSE 17.3 mph 21.9 mph N/A   Clear
12:05 PM 80.6 °F 51.8 °F 37% 30.20 in 10.0 mi SSE 11.5 mph 19.6 mph N/A   Clear
12:25 PM 82.4 °F 51.8 °F 35% 30.20 in 10.0 mi SSE 17.3 mph 20.7 mph N/A   Clear
12:45 PM 82.4 °F 50.0 °F 32% 30.19 in 10.0 mi South 15.0 mph 20.7 mph N/A   Clear
1:05 PM 82.4 °F 50.0 °F 32% 30.18 in 10.0 mi South 18.4 mph 26.5 mph N/A   Clear
1:25 PM 82.4 °F 50.0 °F 32% 30.17 in 10.0 mi South 18.4 mph 26.5 mph N/A   Clear
1:45 PM 82.4 °F 50.0 °F 32% 30.15 in 10.0 mi SSE 16.1 mph 26.5 mph N/A   Clear
2:05 PM 82.4 °F 48.2 °F 30% 30.13 in 10.0 mi SE 23.0 mph 29.9 mph N/A   Clear
2:25 PM 84.2 °F 48.2 °F 29% 30.12 in 10.0 mi SE 17.3 mph 32.2 mph N/A   Clear
2:45 PM 84.2 °F 46.4 °F 27% 30.10 in 10.0 mi ESE 20.7 mph 27.6 mph N/A   Clear
3:05 PM 84.2 °F 46.4 °F 27% 30.09 in 10.0 mi ESE 18.4 mph 29.9 mph N/A   Clear
3:25 PM 84.2 °F 46.4 °F 27% 30.08 in 10.0 mi ESE 17.3 mph 25.3 mph N/A   Clear
3:45 PM 84.2 °F 48.2 °F 29% 30.07 in 10.0 mi SSE 20.7 mph 26.5 mph N/A   Clear
4:05 PM 84.2 °F 48.2 °F 29% 30.06 in 10.0 mi SE 18.4 mph 26.5 mph N/A   Clear
4:25 PM 84.2 °F 48.2 °F 29% 30.06 in 10.0 mi ESE 16.1 mph 27.6 mph N/A   Clear
4:45 PM 86.0 °F 48.2 °F 27% 30.05 in 10.0 mi SE 16.1 mph 21.9 mph N/A   Clear
5:05 PM 86.0 °F 48.2 °F 27% 30.04 in 10.0 mi SE 17.3 mph 23.0 mph N/A   Clear
5:25 PM 86.0 °F 50.0 °F 29% 30.03 in 10.0 mi ESE 16.1 mph - N/A   Clear
5:45 PM 86.0 °F 46.4 °F 25% 30.04 in 10.0 mi ESE 17.3 mph 20.7 mph N/A   Clear
6:05 PM 84.2 °F 48.2 °F 29% 30.03 in 10.0 mi ESE 16.1 mph - N/A   Clear
6:25 PM 84.2 °F 46.4 °F 27% 30.02 in 10.0 mi ESE 17.3 mph - N/A   Clear
6:45 PM 82.4 °F 46.4 °F 28% 30.02 in 10.0 mi SE 17.3 mph 23.0 mph N/A   Clear
7:05 PM 82.4 °F 46.4 °F 28% 30.02 in 10.0 mi SE 15.0 mph 19.6 mph N/A   Clear
7:25 PM 82.4 °F 46.4 °F 28% 30.02 in 10.0 mi SE 15.0 mph - N/A   Clear
7:45 PM 82.4 °F 48.2 °F 30% 30.03 in 10.0 mi SSE 12.7 mph - N/A   Clear
8:05 PM 80.6 °F 48.2 °F 32% 30.03 in 10.0 mi SSE 10.4 mph - N/A   Clear
8:25 PM 77.0 °F 50.0 °F 39% 30.04 in 10.0 mi SSE 9.2 mph - N/A   Clear
8:45 PM 75.2 °F 51.8 °F 44% 30.05 in 10.0 mi SSE 9.2 mph - N/A   Partly Cloudy
9:05 PM 73.4 °F 51.8 °F 47% 30.04 in 10.0 mi SSE 9.2 mph - N/A   Mostly Cloudy
9:25 PM 73.4 °F 51.8 °F 47% 30.05 in 10.0 mi SSE 9.2 mph - N/A   Mostly Cloudy
9:45 PM 71.6 °F 51.8 °F 50% 30.06 in 10.0 mi SSE 8.1 mph - N/A   Scattered Clouds
10:05 PM 71.6 °F 53.6 °F 53% 30.07 in 10.0 mi SSE 9.2 mph - N/A   Scattered Clouds
10:25 PM 71.6 °F 53.6 °F 53% 30.07 in 10.0 mi SE 5.8 mph - N/A   Scattered Clouds
10:45 PM 69.8 °F 53.6 °F 56% 30.08 in 10.0 mi SE 5.8 mph - N/A   Mostly Cloudy
11:05 PM 68.0 °F 53.6 °F 60% 30.08 in 10.0 mi SE 8.1 mph - N/A   Scattered Clouds
11:25 PM 68.0 °F 53.6 °F 60% 30.08 in 10.0 mi SSE 9.2 mph - N/A   Clear
11:45 PM 68.0 °F 53.6 °F 60% 30.07 in 10.0 mi SSE 12.7 mph - N/A   Clear